Latest Weather Observations for Hobart Airport

IDT60901

Issued at 10:11 pm EDT Saturday 23 February 2019 (issued every 10 minutes, with the page automatically refreshed every 10 minutes)

About weather observations | Map of Hobart area stations | Latest observations for Hobart area | Other Formats
Station Details ID: 094008 Name: HOBART AIRPORT Lat: -42.83 Lon: 147.50 Height: 4.0 m
Data from the previous 72 hours. | See also: Recent months at Hobart Airport
Date/Time
EDT
Temp
°C
App
Temp
°C
Dew
Point
°C
Rel
Hum
%
Delta-T
°C
Wind Press
QNH
hPa
Press
MSL
hPa
Rain since
9am
mm
Dir  Spd
km/h
Gust
km/h
Spd
kts
Gust
kts
23/10:00pm 11.9 11.0 6.1 67 2.7 CALM 0 0 0 0 1032.0 1032.0 0.0
23/09:30pm 12.2 10.5 5.7 64 3.0 E 4 7 2 4 1032.0 1032.0 0.0
23/09:00pm 12.3 8.1 5.8 64 3.0 SSW 17 20 9 11 1031.7 1031.7 0.0
23/08:30pm 13.1 8.9 5.8 61 3.4 SSW 17 19 9 10 1031.3 1031.3 0.0
23/08:00pm 13.5 9.7 5.6 59 3.7 S 15 19 8 10 1030.8 1030.8 0.0
23/07:30pm 14.3 10.1 5.6 56 4.1 S 17 22 9 12 1030.5 1030.5 0.0
23/07:00pm 14.9 10.2 5.3 52 4.5 S 19 24 10 13 1030.5 1030.5 0.0
23/06:30pm 15.3 9.6 5.0 50 4.9 S 24 30 13 16 1030.3 1030.3 0.0
23/06:00pm 15.3 9.7 5.6 52 4.6 S 24 32 13 17 1030.4 1030.4 0.0
23/05:30pm 16.1 10.1 5.1 48 5.2 S 26 32 14 17 1030.4 1030.4 0.0
23/05:00pm 16.0 11.1 4.9 47 5.2 S 20 26 11 14 1029.9 1029.9 0.0
23/04:30pm 16.8 12.3 4.4 43 5.8 S 17 24 9 13 1029.9 1029.9 0.0
23/04:00pm 16.4 11.9 4.4 45 5.6 SSE 17 24 9 13 1029.6 1029.6 0.0
23/03:30pm 16.3 11.3 4.8 46 5.4 SSE 20 26 11 14 1029.5 1029.5 0.0
23/03:00pm 16.1 10.8 5.1 48 5.2 SSE 22 30 12 16 1029.9 1029.9 0.0
23/02:30pm 16.0 10.7 5.2 48 5.1 SE 22 30 12 16 1030.0 1030.0 0.0
23/02:00pm 16.4 10.7 4.9 46 5.4 SE 24 32 13 17 1030.0 1030.0 0.0
23/01:30pm 16.2 9.7 4.9 47 5.4 SE 28 35 15 19 1029.7 1029.7 0.0
23/01:00pm 16.0 9.9 4.7 47 5.3 SE 26 33 14 18 1029.8 1029.8 0.0
23/12:30pm 16.3 10.1 4.2 44 5.7 SE 26 35 14 19 1029.7 1029.7 0.0
23/12:00pm 16.5 10.3 4.5 45 5.6 SSE 26 33 14 18 1029.6 1029.6 0.0
23/11:30am 15.5 9.5 3.3 44 5.6 S 24 32 13 17 1029.8 1029.8 0.0
23/11:00am 15.2 9.2 3.5 45 5.3 S 24 35 13 19 1029.8 1029.8 0.0
23/10:30am 14.8 9.8 4.4 49 4.8 S 20 30 11 16 1029.7 1029.7 0.0
23/10:00am 14.1 8.3 4.5 52 4.4 S 24 35 13 19 1029.5 1029.5 0.0
23/09:30am 14.4 8.6 4.6 51 4.5 S 24 37 13 20 1029.4 1029.4 0.0
23/09:00am 14.6 7.9 5.4 54 4.3 S 30 35 16 19 1029.0 1029.0 0.0
23/08:30am 14.0 7.3 5.7 57 3.9 S 30 37 16 20 1028.6 1028.6 0.0
23/08:00am 13.3 7.4 5.8 60 3.5 S 26 37 14 20 1028.3 1028.3 0.0
23/07:30am 13.1 7.4 6.6 64 3.1 S 26 35 14 19 1027.8 1027.8 0.0
23/07:00am 13.1 7.9 7.3 68 2.8 S 24 32 13 17 1027.2 1027.2 0.0
23/06:30am 13.3 8.7 8.2 71 2.5 S 22 30 12 16 1026.9 1026.9 0.0
23/06:28am 13.4 8.8 8.1 70 2.6 S 22 30 12 16 1026.8 1026.8 0.0
23/06:00am 13.6 8.8 9.0 74 2.3 S 24 32 13 17 1026.6 1026.6 0.0
23/05:30am 13.5 8.9 9.8 78 1.9 S 24 32 13 17 1026.1 1026.1 0.0
23/05:00am 13.6 10.0 10.7 82 1.5 S 20 32 11 17 1025.5 1025.5 0.0
23/04:30am 13.9 11.8 11.2 84 1.4 SSW 13 15 7 8 1025.2 1025.2 0.0
23/04:00am 14.5 12.0 11.1 80 1.8 S 15 22 8 12 1025.0 1025.0 0.0
23/03:30am 15.1 13.6 9.0 67 3.1 S 7 9 4 5 1024.9 1024.9 0.0
23/03:00am 15.4 13.4 8.7 64 3.4 NW 9 15 5 8 1024.7 1024.7 0.0
23/02:30am 15.5 12.7 8.6 63 3.5 NW 13 17 7 9 1024.7 1024.7 0.0
23/02:00am 15.1 12.7 8.8 66 3.2 NNW 11 17 6 9 1024.5 1024.5 0.0
23/01:30am 15.5 13.2 9.0 65 3.3 WNW 11 13 6 7 1024.8 1024.8 0.0
23/01:00am 15.2 13.3 8.9 66 3.2 NW 9 13 5 7 1024.5 1024.5 0.0
23/12:30am 15.2 13.5 8.4 64 3.4 N 7 9 4 5 1024.4 1024.4 0.0
23/12:00am 15.1 14.3 8.3 64 3.4 E 2 7 1 4 1024.3 1024.3 0.0
 
Date/Time
EDT
Temp
°C
App
Temp
°C
Dew
Point
°C
Rel
Hum
%
Delta-T
°C
Wind Press
QNH
hPa
Press
MSL
hPa
Rain since
9am
mm
Dir  Spd
km/h
Gust
km/h
Spd
kts
Gust
kts
22/11:30pm 15.3 14.2 8.6 64 3.4 ESE 4 9 2 5 1024.2 1024.2 0.0
22/11:00pm 14.2 11.9 9.1 71 2.6 NNW 11 13 6 7 1023.8 1023.8 0.0
22/10:30pm 14.7 13.0 8.3 65 3.2 WSW 7 11 4 6 1024.0 1024.0 0.0
22/10:00pm 17.0 13.2 7.6 54 4.7 SSW 17 20 9 11 1023.8 1023.8 0.0
22/09:30pm 17.2 13.0 8.1 55 4.6 SSW 20 28 11 15 1023.6 1023.6 0.0
22/09:00pm 17.7 14.5 8.5 55 4.7 SW 15 20 8 11 1023.4 1023.4 0.0
22/08:30pm 17.4 14.6 8.6 56 4.5 WSW 13 15 7 8 1022.9 1022.9 0.0
22/08:00pm 18.3 15.8 8.4 52 5.1 SSW 11 17 6 9 1022.4 1022.4 0.0
22/07:30pm 18.7 17.2 8.4 51 5.3 NNW 6 11 3 6 1021.9 1021.9 0.0
22/07:00pm 17.9 14.9 10.8 63 3.8 SSE 17 26 9 14 1021.8 1021.8 0.0
22/06:30pm 18.7 15.7 10.5 59 4.4 SSE 17 24 9 13 1021.6 1021.6 0.0
22/06:00pm 19.9 16.2 9.3 50 5.6 SSE 19 22 10 12 1021.3 1021.3 0.0
22/05:30pm 20.0 16.4 8.5 47 6.0 SSE 17 22 9 12 1021.2 1021.2 0.0
22/05:00pm 19.8 16.2 9.9 53 5.3 SSE 19 26 10 14 1021.1 1021.1 0.0
22/04:30pm 20.6 16.4 7.5 42 6.7 SSE 19 24 10 13 1020.9 1020.9 0.0
22/04:00pm 20.9 16.6 8.0 43 6.7 S 20 28 11 15 1021.0 1021.0 0.0
22/03:30pm 20.5 16.9 8.2 45 6.4 SE 17 22 9 12 1021.1 1021.1 0.0
22/03:00pm 20.9 17.6 8.0 43 6.7 SE 15 24 8 13 1021.1 1021.1 0.0
22/02:30pm 19.8 17.2 7.7 45 6.2 SE 11 17 6 9 1021.5 1021.5 0.0
22/02:00pm 18.7 16.9 7.9 49 5.5 ESE 7 9 4 5 1021.7 1021.7 0.0
22/01:30pm 18.4 15.4 7.8 50 5.4 SSE 13 15 7 8 1021.8 1021.8 0.0
22/01:00pm 17.6 14.7 8.2 54 4.8 SE 13 15 7 8 1021.9 1021.9 0.0
22/12:30pm 17.6 14.6 7.7 52 5.0 SE 13 17 7 9 1022.2 1022.2 0.0
22/12:00pm 17.7 14.7 7.6 51 5.1 SE 13 17 7 9 1022.2 1022.2 0.0
22/11:30am 17.5 15.3 7.8 53 4.9 S 9 13 5 7 1022.6 1022.6 0.0
22/11:00am 16.9 14.2 7.3 53 4.8 SSE 11 17 6 9 1022.7 1022.7 0.0
22/10:30am 16.8 14.5 7.6 54 4.6 S 9 15 5 8 1022.8 1022.8 0.0
22/10:00am 17.0 13.2 7.4 53 4.8 NW 17 26 9 14 1022.5 1022.5 0.0
22/09:30am 16.7 12.8 7.2 53 4.7 NW 17 24 9 13 1022.2 1022.2 0.0
22/09:00am 15.6 11.6 6.8 56 4.3 NNW 17 24 9 13 1022.2 1022.2 0.4
22/08:30am 15.0 12.2 6.8 58 4.0 NNW 11 17 6 9 1022.0 1022.0 0.2
22/08:00am 13.7 10.9 7.1 64 3.2 NNW 11 13 6 7 1021.7 1021.7 0.2
22/07:30am 12.8 11.0 8.1 73 2.3 N 7 9 4 5 1021.3 1021.3 0.2
22/07:00am 12.3 9.5 7.1 70 2.5 NNW 11 19 6 10 1021.0 1021.0 0.2
22/06:30am 11.8 9.0 7.0 72 2.3 NNW 11 13 6 7 1020.8 1020.8 0.2
22/06:00am 12.2 10.3 6.7 69 2.6 N 6 7 3 4 1020.6 1020.6 0.2
22/05:30am 13.1 9.5 6.9 66 3.0 NW 15 19 8 10 1020.3 1020.3 0.2
22/05:00am 13.0 9.8 7.0 67 2.9 NNW 13 19 7 10 1020.2 1020.2 0.2
22/04:30am 13.4 9.4 6.5 63 3.3 NW 17 28 9 15 1019.9 1019.9 0.2
22/04:00am 13.4 9.8 6.7 64 3.2 NNW 15 20 8 11 1020.2 1020.2 0.2
22/03:30am 12.7 9.7 7.6 71 2.5 NNW 13 17 7 9 1020.3 1020.3 0.2
22/03:00am 12.7 8.8 7.3 69 2.6 NNW 17 24 9 13 1020.1 1020.1 0.2
22/02:30am 13.8 11.2 7.7 66 3.0 N 11 15 6 8 1020.0 1020.0 0.2
22/02:00am 13.6 11.4 7.9 68 2.8 NW 9 13 5 7 1020.0 1020.0 0.2
22/01:30am 13.8 10.1 7.9 67 2.9 NW 17 26 9 14 1020.0 1020.0 0.2
22/01:00am 13.3 9.8 7.3 67 2.9 NW 15 19 8 10 1020.1 1020.1 0.2
22/12:30am 13.7 9.8 7.3 65 3.1 WNW 17 20 9 11 1020.0 1020.0 0.2
22/12:00am 14.4 10.5 7.2 62 3.5 NW 17 19 9 10 1020.0 1020.0 0.2
 
Date/Time
EDT
Temp
°C
App
Temp
°C
Dew
Point
°C
Rel
Hum
%
Delta-T
°C
Wind Press
QNH
hPa
Press
MSL
hPa
Rain since
9am
mm
Dir  Spd
km/h
Gust
km/h
Spd
kts
Gust
kts
21/11:30pm 14.6 10.3 7.0 60 3.7 NW 19 28 10 15 1020.0 1020.0 0.2
21/11:00pm 14.8 10.8 6.8 58 3.9 NW 17 26 9 14 1019.9 1019.9 0.2
21/10:30pm 14.7 10.4 7.1 60 3.7 WNW 19 26 10 14 1019.7 1019.7 0.2
21/10:00pm 15.2 11.5 6.5 56 4.2 WNW 15 22 8 12 1019.7 1019.7 0.2
21/09:30pm 15.4 12.1 6.6 55 4.3 W 13 24 7 13 1019.3 1019.3 0.2
21/09:00pm 16.1 11.9 5.7 50 5.0 W 17 22 9 12 1019.0 1019.0 0.2
21/08:30pm 16.2 13.2 5.8 50 5.0 W 11 17 6 9 1018.4 1018.4 0.2
21/08:00pm 17.0 13.6 6.1 48 5.3 WSW 13 22 7 12 1018.1 1018.1 0.2
21/07:30pm 17.4 13.2 5.6 45 5.7 SW 17 24 9 13 1017.6 1017.6 0.2
21/07:00pm 17.7 13.3 4.7 42 6.2 SSW 17 24 9 13 1017.3 1017.3 0.2
21/06:30pm 18.6 13.6 4.6 39 6.7 WSW 20 32 11 17 1016.9 1016.9 0.2
21/06:00pm 19.1 13.8 5.1 39 6.8 WSW 22 32 12 17 1016.5 1016.5 0.2
21/05:30pm 18.2 12.2 5.2 42 6.3 SW 26 35 14 19 1016.0 1016.0 0.2
21/05:00pm 18.2 11.8 5.4 43 6.2 SW 28 39 15 21 1015.7 1015.7 0.2
21/04:30pm 18.9 12.8 6.7 45 6.1 SW 28 35 15 19 1015.5 1015.5 0.2
21/04:00pm 18.5 13.0 6.1 44 6.1 SW 24 33 13 18 1015.5 1015.5 0.2
21/03:30pm 18.2 13.2 6.5 46 5.8 SSW 22 30 12 16 1015.2 1015.1 0.2
21/03:00pm 18.0 15.4 7.8 51 5.2 NW 11 13 6 7 1015.1 1015.0 0.2
21/02:30pm 17.7 15.0 8.8 56 4.6 WNW 13 19 7 10 1015.0 1014.9 0.2
21/02:00pm 16.3 15.4 11.3 72 2.7 SW 7 11 4 6 1015.2 1015.1 0.2
21/01:30pm 16.5 13.1 10.7 68 3.1 SW 19 28 10 15 1014.9 1014.8 0.0
21/01:00pm 17.4 12.1 7.0 50 5.2 WNW 24 33 13 18 1014.4 1014.3 0.0
21/12:30pm 18.3 12.8 7.7 50 5.4 WNW 26 35 14 19 1014.0 1013.9 0.0
21/12:00pm 18.1 13.6 6.9 48 5.6 WNW 20 30 11 16 1013.7 1013.6 0.0
21/11:30am 16.5 10.4 6.5 51 4.9 WNW 28 39 15 21 1013.7 1013.6 0.0
21/11:00am 16.3 9.4 6.5 52 4.8 WNW 32 41 17 22 1013.3 1013.2 0.0
21/10:30am 16.5 10.9 5.2 47 5.4 NW 24 33 13 18 1012.9 1012.8 0.0
21/10:00am 15.8 9.8 5.3 49 5.0 NW 26 35 14 19 1012.8 1012.7 0.0
21/09:30am 15.4 9.3 4.8 49 5.0 NW 26 37 14 20 1012.4 1012.3 0.0
21/09:00am 14.5 9.5 4.6 51 4.6 NNW 20 30 11 16 1012.2 1012.1 0.0
21/08:30am 14.1 7.9 4.3 51 4.5 NNW 26 35 14 19 1012.0 1011.9 0.0
21/08:00am 13.6 7.7 3.7 51 4.5 NNW 24 32 13 17 1011.8 1011.7 0.0
21/07:30am 13.3 7.0 3.5 51 4.4 NW 26 35 14 19 1011.3 1011.2 0.0
21/07:00am 12.7 8.1 3.8 54 4.0 NNW 17 28 9 15 1011.3 1011.2 0.0
21/06:30am 12.2 7.9 3.4 55 3.9 NNW 15 24 8 13 1011.2 1011.1 0.0
21/06:00am 12.6 7.4 2.6 50 4.4 NW 19 28 10 15 1011.3 1011.2 0.0
21/05:30am 12.4 6.3 2.6 51 4.3 NW 24 33 13 18 1011.2 1011.1 0.0
21/05:00am 12.5 7.1 2.4 50 4.4 NNW 20 30 11 16 1011.0 1010.9 0.0
21/04:30am 12.4 7.0 2.3 50 4.4 NW 20 30 11 16 1011.0 1010.9 0.0
21/04:00am 12.8 5.7 1.6 46 4.8 WNW 28 39 15 21 1011.0 1010.9 0.0
21/03:30am 12.8 6.2 2.2 48 4.6 WNW 26 33 14 18 1011.0 1010.9 0.0
21/03:00am 13.0 7.2 2.2 48 4.7 NW 22 32 12 17 1010.8 1010.7 0.0
21/02:30am 12.9 7.1 2.4 49 4.6 WNW 22 30 12 16 1010.9 1010.8 0.0
21/02:00am 12.9 7.7 2.7 50 4.5 NW 19 26 10 14 1010.8 1010.7 0.0
21/01:30am 13.1 7.8 3.0 50 4.5 NW 20 26 11 14 1011.1 1011.0 0.0
21/01:00am 13.5 7.6 2.0 45 5.0 NW 22 30 12 16 1011.0 1010.9 0.0
21/12:30am 13.5 7.6 1.7 44 5.1 NW 22 32 12 17 1011.0 1010.9 0.0
21/12:00am 13.2 7.5 2.8 49 4.6 NW 22 32 12 17 1011.1 1011.0 0.0
 
Date/Time
EDT
Temp
°C
App
Temp
°C
Dew
Point
°C
Rel
Hum
%
Delta-T
°C
Wind Press
QNH
hPa
Press
MSL
hPa
Rain since
9am
mm
Dir  Spd
km/h
Gust
km/h
Spd
kts
Gust
kts
20/11:30pm 13.6 8.2 2.2 46 5.0 NW 20 32 11 17 1011.2 1011.1 0.0
20/11:00pm 13.7 7.2 0.4 40 5.6 WNW 24 32 13 17 1011.1 1011.0 0.0
20/10:30pm 13.6 6.8 0.6 41 5.5 WNW 26 37 14 20 1011.3 1011.2 0.0

Latest Capital City Observations: Canberra | Sydney | Melbourne | Brisbane | Adelaide | Perth | Hobart | Darwin

Other formats

Comma delimited format used in spreadsheet applications
http://www.bom.gov.au/fwo/IDT60901/IDT60901.94975.axf

JavaScript Object Notation format (JSON) in row-major order
http://www.bom.gov.au/fwo/IDT60901/IDT60901.94975.json

Data quality

Most of these data are generated automatically and are frequently updated. Quality checks on data are not normally performed. It is possible for incorrect values to appear. Refer to information at About Latest Weather Observations and please check the disclaimer before using these data.